Time;durP1;ratioP1;P1;durP2;ratioP2;P2;SDS_P1;SDS_P2;PMS_P1;PMS_P2;Temp;Humidity;BMP_temperature;BMP_pressure;BME280_temperature;BME280_humidity;BME280_pressure;Samples;Min_cycle;Max_cycle;Signal;HPM_P1;HPM_P2
2023/06/25 00:01:53;;;;;;;11.55;9.77;;;;;;;17.42;90.60;100082.75;5054537;28;20048;-82
2023/06/25 00:04:19;;;;;;;16.02;12.52;;;;;;;17.43;90.78;100087.06;5052536;28;20492;-82
2023/06/25 00:06:44;;;;;;;15.73;11.18;;;;;;;17.55;90.46;100108.28;5054657;28;20032;-82
2023/06/25 00:09:09;;;;;;;15.55;11.18;;;;;;;17.46;90.90;100107.94;5054470;28;20029;-82
2023/06/25 00:11:35;;;;;;;11.57;9.73;;;;;;;17.54;89.89;100117.97;5054572;28;20523;-82
2023/06/25 00:14:02;;;;;;;10.93;8.80;;;;;;;17.56;89.97;100125.75;5053201;28;20017;-82
2023/06/25 00:16:29;;;;;;;11.32;9.18;;;;;;;17.51;89.99;100119.97;5054658;28;20036;-82
2023/06/25 00:18:55;;;;;;;10.43;8.70;;;;;;;17.44;89.61;100108.97;5054655;28;20025;-82
2023/06/25 00:21:20;;;;;;;12.23;9.55;;;;;;;17.51;89.16;100120.78;5054186;28;20671;-82
2023/06/25 00:23:46;;;;;;;11.25;8.13;;;;;;;17.50;89.12;100107.75;5054433;28;20096;-82
2023/06/25 00:26:11;;;;;;;10.73;8.95;;;;;;;17.57;89.03;100107.22;5054304;28;20029;-82
2023/06/25 00:28:37;;;;;;;11.57;9.18;;;;;;;17.46;88.94;100097.41;5054540;28;20028;-82
2023/06/25 00:31:03;;;;;;;10.57;8.98;;;;;;;17.34;89.26;100068.44;5054473;28;20029;-82
2023/06/25 00:33:28;;;;;;;10.38;8.55;;;;;;;17.57;89.01;100107.22;5054304;28;20033;-82
2023/06/25 00:35:56;;;;;;;10.95;8.32;;;;;;;17.61;88.98;100116.59;5053898;28;20028;-82
2023/06/25 00:38:21;;;;;;;9.77;8.48;;;;;;;17.39;89.35;100077.69;5054039;28;20359;-82
2023/06/25 00:40:47;;;;;;;9.65;8.65;;;;;;;17.59;89.34;100112.38;5053984;28;20032;-82
2023/06/25 00:43:15;;;;;;;9.68;8.48;;;;;;;17.43;89.62;100096.78;5054145;28;20025;-82
2023/06/25 00:45:40;;;;;;;9.50;8.57;;;;;;;17.47;89.22;100111.41;5054340;28;20055;-81
2023/06/25 00:48:06;;;;;;;10.27;8.63;;;;;;;17.43;89.69;100104.66;5053640;28;20033;-82
2023/06/25 00:50:31;;;;;;;9.68;8.70;;;;;;;17.27;89.26;100081.16;5052578;28;20036;-82
2023/06/25 00:52:57;;;;;;;9.00;8.10;;;;;;;17.45;89.39;100108.06;5054032;28;20021;-82
2023/06/25 00:55:22;;;;;;;9.60;8.43;;;;;;;17.33;89.66;100115.00;5052057;28;20043;-82
2023/06/25 00:57:48;;;;;;;12.23;9.35;;;;;;;17.30;89.95;100104.66;5053718;28;20086;-82
2023/06/25 01:00:14;;;;;;;9.75;8.07;;;;;;;17.25;89.95;100090.13;5053655;28;20035;-82
2023/06/25 01:02:51;;;;;;;10.65;8.98;;;;;;;17.33;89.74;100108.88;5053762;28;20033;-82
2023/06/25 01:05:29;;;;;;;11.80;8.57;;;;;;;17.07;89.99;100069.38;5053686;28;20627;-82
2023/06/25 01:07:58;;;;;;;9.85;8.68;;;;;;;17.17;90.15;100093.28;5052355;28;20031;-82
2023/06/25 01:10:24;;;;;;;11.20;8.90;;;;;;;16.99;90.51;100069.03;5053354;28;20041;-82
2023/06/25 01:12:49;;;;;;;9.77;8.77;;;;;;;17.20;90.10;100106.22;5053647;28;20029;-82
2023/06/25 01:15:15;;;;;;;8.93;8.02;;;;;;;17.04;91.44;100087.97;5052945;28;20611;-82
2023/06/25 01:17:41;;;;;;;9.93;8.55;;;;;;;17.14;91.07;100099.56;5053371;28;20025;-82
2023/06/25 01:20:11;;;;;;;10.77;9.23;;;;;;;16.84;91.21;100054.25;5053090;28;20040;-82
2023/06/25 01:22:38;;;;;;;9.68;8.68;;;;;;;16.86;92.38;100065.53;5053229;28;20472;-82
2023/06/25 01:25:04;;;;;;;9.07;8.05;;;;;;;16.90;92.13;100083.63;5053518;28;20115;-82
2023/06/25 01:27:33;;;;;;;10.40;8.30;;;;;;;17.00;93.15;100091.75;5053254;28;20037;-82
2023/06/25 01:29:59;;;;;;;9.82;8.18;;;;;;;16.94;92.99;100090.38;5053176;28;20028;-82
2023/06/25 01:32:24;;;;;;;9.32;8.05;;;;;;;16.78;93.03;100052.03;5052842;28;20021;-82
2023/06/25 01:34:50;;;;;;;9.82;8.82;;;;;;;16.62;92.72;100036.38;5051529;28;20082;-82
2023/06/25 01:37:18;;;;;;;11.18;8.38;;;;;;;16.69;92.62;100067.44;5052905;28;20068;-82
2023/06/25 01:39:47;;;;;;;9.45;8.35;;;;;;;16.73;92.58;100069.88;5053064;28;20540;-82
2023/06/25 01:42:12;;;;;;;11.48;8.65;;;;;;;16.81;92.60;100080.75;5053050;28;20031;-82
2023/06/25 01:44:39;;;;;;;9.13;7.68;;;;;;;16.77;92.03;100080.13;5052909;28;20111;-82
2023/06/25 01:47:04;;;;;;;10.13;8.63;;;;;;;16.67;92.15;100064.06;5052704;28;20483;-82
2023/06/25 01:49:30;;;;;;;9.70;8.15;;;;;;;16.49;91.13;100032.88;5052563;28;20025;-82
2023/06/25 01:51:55;;;;;;;10.48;8.10;;;;;;;16.57;91.07;100054.25;5053115;28;20436;-82
2023/06/25 01:54:20;;;;;;;8.77;7.88;;;;;;;16.55;90.12;100050.84;5052507;28;20365;-82
2023/06/25 01:56:46;;;;;;;10.80;8.40;;;;;;;16.55;90.65;100056.97;5053241;28;20032;-82
2023/06/25 01:59:13;;;;;;;10.60;8.40;;;;;;;16.65;90.80;100073.00;5051043;28;20174;-82
2023/06/25 02:01:38;;;;;;;10.68;7.90;;;;;;;16.71;91.03;100072.59;5052594;28;20068;-82
2023/06/25 02:04:04;;;;;;;8.65;7.25;;;;;;;16.53;90.58;100050.97;5051137;28;20124;-82
2023/06/25 02:06:30;;;;;;;14.73;8.30;;;;;;;16.64;90.95;100071.28;5052431;28;20059;-82
2023/06/25 02:08:55;;;;;;;9.48;8.10;;;;;;;16.44;90.85;100041.06;5052390;28;20397;-82
2023/06/25 02:11:20;;;;;;;8.85;7.78;;;;;;;16.48;90.77;100049.59;5052545;28;20361;-82
2023/06/25 02:13:46;;;;;;;10.68;7.90;;;;;;;16.60;90.59;100065.41;5052308;28;20468;-82
2023/06/25 02:16:11;;;;;;;9.30;7.97;;;;;;;16.51;90.69;100044.09;5052094;28;20025;-82
2023/06/25 02:18:37;;;;;;;9.77;8.77;;;;;;;16.69;90.20;100070.06;5051006;28;20503;-82
2023/06/25 02:21:03;;;;;;;9.43;8.30;;;;;;;16.69;90.10;100070.06;5029847;28;20037;-82
2023/06/25 02:23:28;;;;;;;9.10;8.20;;;;;;;16.68;89.85;100070.16;5029919;28;20433;-82
2023/06/25 02:25:53;;;;;;;8.73;7.68;;;;;;;16.66;90.58;100067.63;5029335;28;20386;-82
2023/06/25 02:28:19;;;;;;;9.18;8.07;;;;;;;16.44;90.40;100034.00;5029656;28;20034;-82
2023/06/25 02:30:44;;;;;;;10.77;8.65;;;;;;;16.47;90.74;100040.84;5029791;28;20075;-82
2023/06/25 02:33:10;;;;;;;9.02;8.13;;;;;;;16.39;90.59;100041.34;5029528;28;20034;-82
2023/06/25 02:35:36;;;;;;;8.55;7.55;;;;;;;16.60;90.71;100070.69;5029562;28;20045;-82
2023/06/25 02:38:01;;;;;;;8.50;7.68;;;;;;;16.61;90.91;100071.50;5013094;28;20047;-82
2023/06/25 02:40:29;;;;;;;11.20;7.65;;;;;;;16.40;91.32;100034.31;5029402;28;20091;-82
2023/06/25 02:42:56;;;;;;;9.15;8.13;;;;;;;16.34;91.87;100038.16;5029568;28;20037;-82
2023/06/25 02:45:22;;;;;;;8.82;7.40;;;;;;;16.51;92.36;100065.97;5029353;28;20033;-82
2023/06/25 02:47:48;;;;;;;11.52;8.60;;;;;;;16.33;92.05;100035.63;5029525;28;20084;-83
2023/06/25 02:50:13;;;;;;;8.77;7.90;;;;;;;16.38;91.65;100047.53;5029382;28;20613;-83
2023/06/25 02:52:39;;;;;;;9.13;8.25;;;;;;;16.24;91.84;100028.34;5040438;28;20041;-82
2023/06/25 02:55:05;;;;;;;9.68;7.60;;;;;;;16.24;91.58;100033.59;5052172;28;20021;-83
2023/06/25 02:57:30;;;;;;;9.02;7.22;;;;;;;16.21;90.46;100024.13;5051743;28;20029;-82
2023/06/25 02:59:56;;;;;;;9.13;7.50;;;;;;;16.31;90.75;100027.03;5051932;28;20021;-83
2023/06/25 03:02:21;;;;;;;8.90;8.00;;;;;;;16.48;91.17;100050.44;5051551;28;20040;-82
2023/06/25 03:04:47;;;;;;;8.52;7.25;;;;;;;16.28;90.92;100024.56;5051983;28;20021;-82
2023/06/25 03:07:12;;;;;;;12.48;8.25;;;;;;;16.30;90.23;100023.53;5051707;28;20027;-82
2023/06/25 03:09:38;;;;;;;9.27;8.32;;;;;;;16.32;90.38;100034.78;5051532;28;20025;-82
2023/06/25 03:12:04;;;;;;;8.68;7.80;;;;;;;16.42;90.34;100049.03;5051783;28;20036;-83
2023/06/25 03:14:29;;;;;;;8.68;7.80;;;;;;;16.37;90.64;100027.44;5050009;28;20039;-82
2023/06/25 03:16:54;;;;;;;9.68;8.68;;;;;;;16.35;90.54;100025.84;5051540;28;20021;-82
2023/06/25 03:19:20;;;;;;;9.48;7.57;;;;;;;16.46;90.83;100037.38;5050349;28;20124;-82
2023/06/25 03:21:45;;;;;;;11.02;8.27;;;;;;;16.32;91.43;100012.94;5050512;28;20025;-82
2023/06/25 03:24:10;;;;;;;11.00;8.10;;;;;;;16.48;91.14;100042.53;5050290;28;20044;-83
2023/06/25 03:26:35;;;;;;;8.60;7.55;;;;;;;16.50;91.02;100043.28;5050066;28;20102;-83
2023/06/25 03:29:01;;;;;;;10.63;8.20;;;;;;;16.39;90.50;100024.72;5050286;28;20025;-82
2023/06/25 03:31:27;;;;;;;9.18;7.32;;;;;;;16.40;89.92;100029.88;5051253;28;20021;-82
2023/06/25 03:33:52;;;;;;;9.75;8.05;;;;;;;16.60;89.46;100051.41;5051675;28;20439;-82
2023/06/25 03:36:18;;;;;;;10.50;7.85;;;;;;;16.57;89.04;100046.34;5051249;28;20049;-82
2023/06/25 03:38:43;;;;;;;8.35;7.15;;;;;;;16.66;89.38;100051.00;5054057;28;20090;-82
2023/06/25 03:41:08;;;;;;;8.80;7.90;;;;;;;16.68;88.59;100049.13;5055414;28;20021;-82
2023/06/25 03:43:34;;;;;;;9.38;7.38;;;;;;;16.74;88.56;100048.75;5055071;28;20035;-82
2023/06/25 03:45:59;;;;;;;8.38;7.57;;;;;;;16.78;88.52;100057.28;5055223;28;20036;-82
2023/06/25 03:48:24;;;;;;;8.82;7.28;;;;;;;16.75;89.17;100028.56;5055064;28;20025;-82
2023/06/25 03:50:50;;;;;;;8.60;7.78;;;;;;;16.86;89.79;100044.47;5055209;28;20033;-82
2023/06/25 03:53:20;;;;;;;7.95;7.00;;;;;;;16.75;90.62;100016.25;5053775;28;20078;-82
2023/06/25 03:55:46;;;;;;;7.95;7.15;;;;;;;16.90;91.38;100036.28;5054998;28;20538;-82
2023/06/25 03:58:11;;;;;;;8.40;7.50;;;;;;;17.03;91.86;100046.00;5053698;28;20033;-83
2023/06/25 04:00:37;;;;;;;7.93;7.13;;;;;;;17.09;92.12;100043.78;5054915;28;20495;-82
2023/06/25 04:03:02;;;;;;;9.55;8.55;;;;;;;17.21;91.82;100042.09;5054810;28;20043;-82
2023/06/25 04:05:28;;;;;;;10.95;7.50;;;;;;;17.26;91.70;100034.72;5053060;28;20065;-82
2023/06/25 04:07:53;;;;;;;10.77;7.50;;;;;;;17.30;92.27;100028.31;5053569;28;20024;-82
2023/06/25 04:10:19;;;;;;;8.25;7.45;;;;;;;17.62;91.57;100041.91;5054573;28;20024;-83
2023/06/25 04:12:44;;;;;;;8.75;7.85;;;;;;;17.77;89.69;100016.28;5054954;28;20078;-83
2023/06/25 04:15:10;;;;;;;9.55;8.05;;;;;;;18.14;90.00;100009.25;5054449;28;20082;-83
2023/06/25 04:17:35;;;;;;;8.40;7.60;;;;;;;18.64;88.47;100014.41;5054237;28;20074;-83
2023/06/25 04:20:01;;;;;;;8.82;7.95;;;;;;;19.27;85.97;100058.06;5054722;28;20024;-83
2023/06/25 04:22:26;;;;;;;8.43;7.57;;;;;;;19.63;84.66;100041.19;5052979;28;20021;-83
2023/06/25 04:24:52;;;;;;;7.72;6.85;;;;;;;20.16;82.21;100027.34;5054504;28;20119;-83
2023/06/25 04:27:19;;;;;;;8.02;6.85;;;;;;;21.09;78.73;100032.88;5052864;28;20025;-83
2023/06/25 04:29:44;;;;;;;8.18;7.32;;;;;;;22.32;74.19;100017.78;5054178;28;20055;-83
2023/06/25 04:32:10;;;;;;;8.60;6.97;;;;;;;24.11;69.90;100046.28;5054174;28;20021;-83
2023/06/25 04:34:35;;;;;;;8.45;7.25;;;;;;;25.10;67.15;100032.94;5054075;28;20033;-83
2023/06/25 04:37:00;;;;;;;8.68;7.03;;;;;;;25.37;65.79;100023.16;5054169;28;20477;-83
2023/06/25 04:39:26;;;;;;;8.68;7.80;;;;;;;24.95;66.66;100021.16;5053757;28;20035;-83
2023/06/25 04:41:51;;;;;;;8.10;7.30;;;;;;;24.53;67.42;100050.25;5054147;28;20104;-83
2023/06/25 04:44:16;;;;;;;9.52;7.78;;;;;;;24.07;67.48;100044.09;5054008;28;20025;-83
2023/06/25 04:46:42;;;;;;;10.15;6.40;;;;;;;23.67;68.98;100031.09;5053649;28;20029;-84
2023/06/25 04:49:07;;;;;;;7.28;6.55;;;;;;;23.86;68.03;100060.28;5053814;28;20116;-84
2023/06/25 04:51:34;;;;;;;8.35;6.93;;;;;;;24.37;67.16;100058.88;5053791;28;20021;-84
2023/06/25 04:54:00;;;;;;;7.20;6.50;;;;;;;25.49;64.57;100050.34;5053848;28;20025;-84
2023/06/25 04:56:25;;;;;;;8.13;6.57;;;;;;;26.69;61.55;100017.28;5053594;28;20094;-84
2023/06/25 04:58:50;;;;;;;7.38;6.45;;;;;;;27.63;58.92;100042.56;5054069;28;20087;-84
2023/06/25 05:01:16;;;;;;;8.23;7.05;;;;;;;27.74;57.24;100048.44;5053552;28;20059;-84
2023/06/25 05:03:41;;;;;;;7.72;6.53;;;;;;;27.14;57.74;100029.28;5053395;28;20025;-84
2023/06/25 05:06:06;;;;;;;6.68;6.07;;;;;;;26.58;58.10;100048.66;5053605;28;20056;-84
2023/06/25 05:08:32;;;;;;;6.82;6.13;;;;;;;26.04;57.62;100017.94;5053348;28;20029;-84
2023/06/25 05:10:57;;;;;;;7.47;6.78;;;;;;;26.01;59.35;100053.00;5052051;28;20021;-84
2023/06/25 05:13:22;;;;;;;7.03;6.28;;;;;;;26.06;57.94;100046.16;5053175;28;20033;-84
2023/06/25 05:15:48;;;;;;;7.68;6.65;;;;;;;26.37;56.36;100019.69;5053229;28;20029;-84
2023/06/25 05:18:13;;;;;;;7.30;6.65;;;;;;;27.63;54.36;100046.09;5053512;28;20385;-84
2023/06/25 05:20:38;;;;;;;7.78;6.97;;;;;;;28.63;52.69;100018.66;5053121;28;20029;-84
2023/06/25 05:23:08;;;;;;;6.75;6.15;;;;;;;29.00;52.51;100029.44;5053288;28;20036;-84
2023/06/25 05:25:35;;;;;;;8.80;6.22;;;;;;;28.31;51.39;100039.28;5052970;28;20029;-84
2023/06/25 05:28:01;;;;;;;6.20;5.68;;;;;;;27.66;53.80;100052.94;5053101;28;20029;-84
2023/06/25 05:30:28;;;;;;;6.45;5.78;;;;;;;27.37;54.88;100059.69;5051535;28;20052;-84
2023/06/25 05:32:54;;;;;;;6.90;6.20;;;;;;;26.92;55.53;100046.81;5053209;28;20036;-85
2023/06/25 05:35:19;;;;;;;6.88;6.20;;;;;;;26.83;55.35;100028.13;5051636;28;20052;-85
2023/06/25 05:37:45;;;;;;;7.30;6.60;;;;;;;27.21;54.83;100051.69;5052497;28;20093;-84
2023/06/25 05:40:11;;;;;;;7.38;6.70;;;;;;;28.41;53.23;100050.66;5052920;28;20078;-84
2023/06/25 05:42:36;;;;;;;6.60;5.72;;;;;;;28.78;52.00;100047.19;5051383;28;20033;-84
2023/06/25 05:45:02;;;;;;;6.38;5.80;;;;;;;28.58;52.56;100051.38;5052747;28;20102;-84
2023/06/25 05:47:27;;;;;;;6.07;5.50;;;;;;;28.14;52.96;100053.78;5052838;28;20017;-84
2023/06/25 05:49:52;;;;;;;8.32;5.95;;;;;;;27.60;54.03;100041.06;5052892;28;20032;-85
2023/06/25 05:52:18;;;;;;;6.38;5.78;;;;;;;27.29;54.57;100055.19;5052780;28;20381;-84
2023/06/25 05:54:43;;;;;;;6.55;5.95;;;;;;;27.10;55.60;100050.22;5052326;28;20036;-84
2023/06/25 05:57:08;;;;;;;10.02;6.15;;;;;;;27.04;56.01;100042.81;5052687;28;20032;-84
2023/06/25 05:59:34;;;;;;;6.55;5.90;;;;;;;27.09;56.33;100038.69;5050906;28;20389;-84
2023/06/25 06:01:59;;;;;;;5.90;5.40;;;;;;;27.33;56.64;100051.16;5050503;28;20036;-86
2023/06/25 06:04:24;;;;;;;8.40;6.22;;;;;;;27.37;55.72;100043.66;5051089;28;20033;-86
2023/06/25 06:06:50;;;;;;;6.63;6.00;;;;;;;27.21;55.19;100044.50;5051084;28;20052;-86
2023/06/25 06:09:15;;;;;;;6.70;6.10;;;;;;;27.48;55.65;100054.00;5052459;28;20536;-84
2023/06/25 06:11:40;;;;;;;8.40;5.30;;;;;;;27.60;55.32;100052.63;5052354;28;20493;-84
2023/06/25 06:14:06;;;;;;;7.13;5.70;;;;;;;27.77;53.31;100057.94;5051024;28;20108;-84
2023/06/25 06:16:32;;;;;;;6.43;5.80;;;;;;;27.75;53.48;100049.25;5052182;28;20033;-84
2023/06/25 06:18:57;;;;;;;6.85;5.47;;;;;;;28.16;54.25;100065.16;5052321;28;20487;-85
2023/06/25 06:21:22;;;;;;;5.60;5.07;;;;;;;28.40;53.00;100040.09;5052306;28;20025;-85
2023/06/25 06:23:48;;;;;;;6.28;5.60;;;;;;;28.91;52.02;100054.63;5052210;28;20375;-85
2023/06/25 06:26:13;;;;;;;5.55;5.05;;;;;;;29.46;51.46;100058.00;5052144;28;20527;-85
2023/06/25 06:28:38;;;;;;;6.82;5.30;;;;;;;29.77;48.78;100052.47;5051772;28;20433;-85
2023/06/25 06:31:04;;;;;;;5.35;4.95;;;;;;;30.71;47.62;100039.09;5052160;28;20025;-85
2023/06/25 06:33:31;;;;;;;5.55;4.57;;;;;;;31.60;45.38;100044.78;5051973;28;20021;-85
2023/06/25 06:35:56;;;;;;;4.80;4.35;;;;;;;33.09;45.16;100068.31;5051785;28;20074;-85
2023/06/25 06:38:21;;;;;;;5.55;5.13;;;;;;;34.03;42.68;100046.31;5052118;28;20119;-85
2023/06/25 06:40:47;;;;;;;5.65;5.20;;;;;;;34.62;41.98;100042.47;5051994;28;20385;-85
2023/06/25 06:43:12;;;;;;;5.82;5.22;;;;;;;35.11;42.57;100051.69;5051745;28;20021;-85
2023/06/25 06:45:37;;;;;;;5.60;5.15;;;;;;;35.77;41.32;100057.50;5050185;28;20032;-85
2023/06/25 06:48:05;;;;;;;7.43;5.63;;;;;;;37.44;40.72;100066.53;5052207;28;20037;-85
2023/06/25 06:50:30;;;;;;;5.32;4.85;;;;;;;39.01;39.01;100063.59;5051601;28;20075;-85
2023/06/25 06:52:55;;;;;;;4.97;4.47;;;;;;;40.15;36.88;100055.66;5051602;28;20029;-85
2023/06/25 06:55:21;;;;;;;4.63;4.32;;;;;;;40.70;35.60;100066.59;5051663;28;20036;-85
2023/06/25 06:57:46;;;;;;;4.82;4.43;;;;;;;39.14;36.12;100063.25;5051649;28;20696;-85
2023/06/25 07:00:13;;;;;;;4.97;4.57;;;;;;;38.67;36.50;100064.38;5051883;28;20447;-84
2023/06/25 07:02:38;;;;;;;4.50;4.10;;;;;;;37.06;37.77;100055.31;5051544;28;20024;-85
2023/06/25 07:05:04;;;;;;;4.95;4.55;;;;;;;35.41;38.42;100042.88;5051507;28;20397;-84
2023/06/25 07:07:30;;;;;;;4.40;4.00;;;;;;;34.31;41.11;100045.97;5051355;28;20021;-84
2023/06/25 07:09:55;;;;;;;4.97;4.45;;;;;;;33.73;41.85;100051.41;5051554;28;20057;-84
2023/06/25 07:12:21;;;;;;;4.85;4.45;;;;;;;32.82;42.53;100021.56;5053058;28;20090;-84
2023/06/25 07:14:46;;;;;;;5.22;4.63;;;;;;;32.24;42.76;100025.63;5055420;28;20116;-84
2023/06/25 07:17:11;;;;;;;4.80;4.40;;;;;;;32.01;43.16;100027.81;5055730;28;20025;-84
2023/06/25 07:19:37;;;;;;;4.88;4.13;;;;;;;32.95;44.05;100013.50;5055372;28;20021;-84
2023/06/25 07:22:02;;;;;;;4.65;4.18;;;;;;;34.56;41.08;100034.41;5055513;28;20047;-84
2023/06/25 07:24:28;;;;;;;4.68;4.28;;;;;;;35.26;40.24;100035.09;5055264;28;20460;-84
2023/06/25 07:26:53;;;;;;;4.63;4.15;;;;;;;35.04;39.80;100012.19;5055431;28;20033;-84
2023/06/25 07:29:18;;;;;;;4.68;4.28;;;;;;;35.36;40.24;100019.16;5055336;28;20525;-84
2023/06/25 07:31:44;;;;;;;4.28;3.53;;;;;;;35.91;39.37;100024.59;5055336;28;20380;-84
2023/06/25 07:34:09;;;;;;;4.30;4.00;;;;;;;36.45;38.18;100032.84;5055241;28;20029;-84
2023/06/25 07:36:34;;;;;;;3.83;3.50;;;;;;;35.78;37.66;100029.31;5054931;28;20049;-84
2023/06/25 07:39:03;;;;;;;4.38;4.03;;;;;;;34.99;37.74;100039.94;5055172;28;20029;-84
2023/06/25 07:41:28;;;;;;;3.85;3.55;;;;;;;33.48;38.72;100024.25;5055123;28;20472;-84
2023/06/25 07:43:55;;;;;;;4.57;4.18;;;;;;;32.85;40.01;100027.38;5054893;28;20099;-84
2023/06/25 07:46:21;;;;;;;3.65;3.25;;;;;;;31.64;41.04;100039.84;5055155;28;20036;-84
2023/06/25 07:48:46;;;;;;;4.03;3.63;;;;;;;30.87;41.51;100033.47;5054870;28;20029;-84
2023/06/25 07:51:12;;;;;;;3.92;3.63;;;;;;;30.11;42.33;100014.25;5055068;28;20035;-84
2023/06/25 07:53:38;;;;;;;4.15;3.75;;;;;;;29.94;43.70;100031.63;5054695;28;20469;-84
2023/06/25 07:56:03;;;;;;;4.07;3.78;;;;;;;29.65;43.38;100019.06;5054814;28;20033;-84
2023/06/25 07:58:28;;;;;;;4.00;3.63;;;;;;;28.98;43.38;100006.50;5054773;28;20029;-84
2023/06/25 08:00:54;;;;;;;4.82;4.10;;;;;;;28.89;44.66;100020.97;5054857;28;20028;-84
2023/06/25 08:03:19;;;;;;;5.22;4.72;;;;;;;28.72;45.90;100025.63;5054830;28;20029;-84
2023/06/25 08:05:45;;;;;;;5.20;3.88;;;;;;;28.32;46.17;100003.47;5054495;28;20153;-84
2023/06/25 08:08:10;;;;;;;5.00;4.60;;;;;;;28.23;47.95;100017.88;5054665;28;20461;-84
2023/06/25 08:10:35;;;;;;;4.85;4.47;;;;;;;28.54;48.14;100020.59;5054388;28;20060;-84
2023/06/25 08:13:00;;;;;;;4.43;4.03;;;;;;;28.66;48.06;100010.28;5054471;28;20061;-84
2023/06/25 08:15:26;;;;;;;5.05;4.55;;;;;;;28.86;47.49;100022.16;5053332;28;20461;-84
2023/06/25 08:17:51;;;;;;;4.03;3.72;;;;;;;28.91;46.36;100010.88;5053132;28;20024;-84
2023/06/25 08:20:16;;;;;;;4.30;4.00;;;;;;;28.92;47.40;100017.94;5054487;28;20032;-84
2023/06/25 08:22:42;;;;;;;4.65;4.25;;;;;;;28.93;48.18;100017.75;5052861;28;20060;-83
2023/06/25 08:25:19;;;;;;;4.38;3.72;;;;;;;28.77;48.69;99996.44;5053444;28;20074;-84
2023/06/25 08:27:44;;;;;;;3.72;3.20;;;;;;;28.78;48.28;100007.00;5054370;28;20025;-84
2023/06/25 08:30:10;;;;;;;4.50;3.92;;;;;;;28.78;47.04;100014.16;5054541;28;20378;-84
2023/06/25 08:32:36;;;;;;;4.07;3.78;;;;;;;28.51;46.61;99978.88;5053905;28;20041;-84
2023/06/25 08:35:02;;;;;;;4.72;3.85;;;;;;;28.39;45.82;100014.31;5054282;28;20116;-84
2023/06/25 08:37:28;;;;;;;4.57;3.80;;;;;;;27.93;46.61;99982.91;5053971;28;20040;-84
2023/06/25 08:39:53;;;;;;;3.92;3.45;;;;;;;28.28;46.88;100012.84;5052469;28;20025;-84
2023/06/25 08:42:18;;;;;;;4.50;3.90;;;;;;;28.30;47.97;99995.59;5054318;28;20090;-84
2023/06/25 08:44:44;;;;;;;4.05;3.65;;;;;;;28.31;45.62;100029.38;5053115;28;20036;-84
2023/06/25 08:47:11;;;;;;;6.82;6.25;;;;;;;28.15;47.47;100000.06;5053259;28;20037;-83
2023/06/25 08:49:42;;;;;;;4.50;4.10;;;;;;;28.37;47.70;100001.09;5053812;28;20029;-83
2023/06/25 08:52:09;;;;;;;4.97;3.67;;;;;;;28.51;48.24;100002.16;5053756;28;20025;-83
2023/06/25 08:54:34;;;;;;;4.15;3.85;;;;;;;28.72;48.34;100021.09;5052939;28;20112;-90
2023/06/25 08:57:00;;;;;;;5.65;4.45;;;;;;;28.72;46.96;100010.38;5032638;28;20108;-88
2023/06/25 08:59:25;;;;;;;4.35;3.90;;;;;;;28.73;46.84;100004.00;5032631;28;20033;-93
2023/06/25 09:01:51;;;;;;;4.32;3.92;;;;;;;28.93;48.24;100016.91;5032383;28;20076;-94
2023/06/25 09:04:16;;;;;;;4.30;3.92;;;;;;;29.05;47.30;100021.69;5032434;28;20466;-93
2023/06/25 09:06:42;;;;;;;4.35;3.80;;;;;;;29.14;47.26;100002.81;5032239;28;20512;-93
2023/06/25 09:09:10;;;;;;;4.38;3.97;;;;;;;29.28;47.99;100012.72;5032677;28;20021;-93
2023/06/25 09:11:40;;;;;;;4.35;3.95;;;;;;;29.48;47.59;100011.16;5032357;28;20060;-91
2023/06/25 09:14:06;;;;;;;3.83;3.30;;;;;;;29.46;47.14;99982.88;5040226;28;20483;-87
2023/06/25 09:16:32;;;;;;;3.70;3.40;;;;;;;29.62;46.98;99988.03;5053527;28;20033;-87
2023/06/25 09:19:00;;;;;;;4.60;4.20;;;;;;;29.76;47.00;100014.06;5051867;28;20070;-87
2023/06/25 09:21:37;;;;;;;3.92;3.63;;;;;;;29.66;45.31;99992.03;5051680;28;20071;-85
2023/06/25 09:24:14;;;;;;;3.58;3.28;;;;;;;29.82;46.79;100010.63;5053568;28;20031;-85
2023/06/25 09:26:50;;;;;;;4.97;3.85;;;;;;;29.77;45.91;100007.66;5053024;28;20473;-85
2023/06/25 09:29:17;;;;;;;4.55;4.03;;;;;;;29.53;45.83;99989.13;5046059;28;20029;-85
2023/06/25 09:31:46;;;;;;;4.43;4.03;;;;;;;29.48;45.46;100000.44;5032788;28;20029;-85
2023/06/25 09:34:16;;;;;;;4.68;4.20;;;;;;;29.16;46.45;99984.69;5031731;28;20025;-85
2023/06/25 09:36:42;;;;;;;4.95;4.40;;;;;;;29.12;47.28;99980.69;5038364;28;20045;-85
2023/06/25 09:39:09;;;;;;;5.03;4.22;;;;;;;28.79;47.12;99965.75;5052780;28;20029;-85
2023/06/25 09:41:37;;;;;;;4.63;4.22;;;;;;;28.75;46.85;100001.16;5053066;28;20096;-85
2023/06/25 09:44:04;;;;;;;3.88;3.58;;;;;;;28.30;47.50;99990.22;5052948;28;20047;-85
2023/06/25 09:46:38;;;;;;;3.90;3.55;;;;;;;28.49;47.96;99994.31;5047597;28;20037;-85
2023/06/25 09:49:03;;;;;;;6.00;4.20;;;;;;;28.28;47.59;99984.22;5033113;28;20116;-86
2023/06/25 09:51:37;;;;;;;3.83;3.53;;;;;;;28.20;48.08;100000.34;5033335;28;20037;-85
2023/06/25 09:54:04;;;;;;;4.38;4.00;;;;;;;27.94;48.37;99965.88;5032847;28;20021;-86
2023/06/25 09:56:34;;;;;;;4.95;4.07;;;;;;;27.84;48.74;99989.31;5032782;28;20108;-85
2023/06/25 09:59:00;;;;;;;5.22;4.35;;;;;;;27.35;48.98;99974.28;5032476;28;20033;-85
2023/06/25 10:01:25;;;;;;;5.00;4.60;;;;;;;27.24;49.50;99990.69;5033027;28;20124;-85
2023/06/25 10:03:51;;;;;;;5.13;4.57;;;;;;;26.85;49.72;99962.00;5032670;28;20067;-85
2023/06/25 10:06:17;;;;;;;4.50;4.10;;;;;;;26.66;50.63;99951.63;5032501;28;20516;-85
2023/06/25 10:08:42;;;;;;;4.50;4.10;;;;;;;26.80;50.83;99975.03;5032476;28;20378;-85
2023/06/25 10:11:07;;;;;;;5.13;4.57;;;;;;;26.82;51.22;99990.88;5032553;28;20048;-85
2023/06/25 10:13:33;;;;;;;6.63;4.68;;;;;;;26.77;51.62;99983.38;5032618;28;20021;-86
2023/06/25 10:16:00;;;;;;;5.57;4.28;;;;;;;26.67;51.98;99964.00;5030916;28;20029;-85
2023/06/25 10:18:26;;;;;;;5.05;4.30;;;;;;;26.69;51.87;99953.97;5032696;28;20076;-85
2023/06/25 10:20:59;;;;;;;4.90;4.28;;;;;;;26.63;52.02;99938.59;5032282;28;20056;-86
2023/06/25 10:23:25;;;;;;;5.07;4.40;;;;;;;26.76;51.22;99968.34;5031232;28;20018;-85
2023/06/25 10:25:56;;;;;;;5.22;4.15;;;;;;;26.74;51.80;99954.31;5030784;28;20061;-86
2023/06/25 10:28:32;;;;;;;;;;;;;;;26.80;51.69;99975.03;5032441;28;20033;-87
2023/06/25 10:31:00;;;;;;;5.45;4.45;;;;;;;26.49;51.19;99947.31;5032041;28;19909;-85
2023/06/25 10:33:29;;;;;;;6.05;5.15;;;;;;;26.56;51.48;99951.00;5030746;28;20033;-85
2023/06/25 10:35:56;;;;;;;4.47;4.07;;;;;;;26.50;51.35;99932.94;5031635;28;20156;-85
2023/06/25 10:38:23;;;;;;;4.90;4.30;;;;;;;26.54;50.92;99935.09;5030650;28;20025;-85
2023/06/25 10:40:49;;;;;;;5.32;4.82;;;;;;;26.59;52.12;99948.81;5031686;28;20108;-85
2023/06/25 10:43:18;;;;;;;5.05;4.55;;;;;;;26.51;52.36;99926.63;5031015;28;20068;-85
2023/06/25 10:45:50;;;;;;;4.45;4.05;;;;;;;26.49;52.06;99925.94;5031818;28;20041;-85
2023/06/25 10:48:16;;;;;;;6.75;5.68;;;;;;;26.44;52.17;99904.22;5031356;28;20516;-85
2023/06/25 10:50:41;;;;;;;5.65;4.00;;;;;;;26.63;52.01;99943.94;5031644;28;20033;-85
2023/06/25 10:53:14;;;;;;;5.22;4.72;;;;;;;26.37;51.90;99914.72;5031797;28;20022;-85
2023/06/25 10:55:43;;;;;;;5.03;4.38;;;;;;;26.50;52.60;99924.94;5032239;28;20032;-85
2023/06/25 10:58:09;;;;;;;5.22;4.47;;;;;;;26.53;51.69;99941.47;5031984;28;20545;-85
2023/06/25 11:00:34;;;;;;;5.20;4.80;;;;;;;26.26;52.94;99899.03;5031991;28;20112;-85
2023/06/25 11:02:59;;;;;;;5.82;4.57;;;;;;;26.12;51.55;99903.19;5030310;28;20053;-84
2023/06/25 11:05:38;;;;;;;4.57;4.18;;;;;;;25.92;51.62;99915.19;5031806;28;20037;-85
2023/06/25 11:08:04;;;;;;;4.63;4.18;;;;;;;25.94;53.29;99907.84;5031831;28;20030;-85
2023/06/25 11:10:31;;;;;;;5.40;4.90;;;;;;;25.91;51.53;99892.97;5030749;28;20029;-85
2023/06/25 11:12:56;;;;;;;5.05;4.57;;;;;;;26.05;52.50;99920.88;5031734;28;20064;-85
2023/06/25 11:15:22;;;;;;;5.00;3.97;;;;;;;25.94;53.49;99894.50;5031740;28;20036;-85
2023/06/25 11:17:52;;;;;;;4.90;4.50;;;;;;;26.04;51.69;99914.72;5031779;28;20033;-85
2023/06/25 11:20:18;;;;;;;5.45;4.75;;;;;;;25.94;53.87;99902.50;5031665;28;20645;-85
2023/06/25 11:22:44;;;;;;;4.65;4.20;;;;;;;25.91;54.98;99898.31;5031517;28;20040;-84